sensor_id;sensor_type;location;lat;lon;timestamp;pressure;altitude;pressure_sealevel;temperature;humidity
68169;BME280;54981;50.206;15.978;2023-05-24T00:01:14;98752.59;;;14.01;100.00
68169;BME280;54981;50.206;15.978;2023-05-24T00:03:45;98754.44;;;13.88;100.00
68169;BME280;54981;50.206;15.978;2023-05-24T00:06:20;98754.22;;;13.91;100.00
68169;BME280;54981;50.206;15.978;2023-05-24T00:08:51;98756.78;;;13.92;100.00
68169;BME280;54981;50.206;15.978;2023-05-24T00:11:21;98753.16;;;13.93;100.00
68169;BME280;54981;50.206;15.978;2023-05-24T00:13:52;98755.06;;;13.91;100.00
68169;BME280;54981;50.206;15.978;2023-05-24T00:16:23;98750.56;;;13.92;100.00
68169;BME280;54981;50.206;15.978;2023-05-24T00:18:54;98754.00;;;13.94;100.00
68169;BME280;54981;50.206;15.978;2023-05-24T00:21:24;98760.00;;;13.84;100.00
68169;BME280;54981;50.206;15.978;2023-05-24T00:23:55;98757.66;;;13.80;100.00
68169;BME280;54981;50.206;15.978;2023-05-24T00:26:25;98756.91;;;13.91;100.00
68169;BME280;54981;50.206;15.978;2023-05-24T00:28:56;98754.78;;;13.83;100.00
68169;BME280;54981;50.206;15.978;2023-05-24T00:31:26;98748.03;;;13.77;100.00
68169;BME280;54981;50.206;15.978;2023-05-24T00:33:56;98747.06;;;13.78;100.00
68169;BME280;54981;50.206;15.978;2023-05-24T00:36:28;98757.97;;;13.75;100.00
68169;BME280;54981;50.206;15.978;2023-05-24T00:38:59;98751.97;;;13.84;100.00
68169;BME280;54981;50.206;15.978;2023-05-24T00:41:29;98757.03;;;13.76;100.00
68169;BME280;54981;50.206;15.978;2023-05-24T00:44:00;98755.63;;;13.71;100.00
68169;BME280;54981;50.206;15.978;2023-05-24T00:46:32;98754.78;;;13.70;100.00
68169;BME280;54981;50.206;15.978;2023-05-24T00:49:03;98753.09;;;13.69;100.00
68169;BME280;54981;50.206;15.978;2023-05-24T00:51:34;98757.97;;;13.75;100.00
68169;BME280;54981;50.206;15.978;2023-05-24T00:54:06;98768.16;;;13.70;100.00
68169;BME280;54981;50.206;15.978;2023-05-24T00:56:36;98753.41;;;13.64;100.00
68169;BME280;54981;50.206;15.978;2023-05-24T00:59:07;98758.78;;;13.52;100.00
68169;BME280;54981;50.206;15.978;2023-05-24T01:01:38;98751.91;;;13.60;100.00
68169;BME280;54981;50.206;15.978;2023-05-24T01:04:10;98751.59;;;13.52;100.00
68169;BME280;54981;50.206;15.978;2023-05-24T01:09:57;98765.16;;;13.49;100.00
68169;BME280;54981;50.206;15.978;2023-05-24T01:15:26;98760.66;;;13.37;100.00
68169;BME280;54981;50.206;15.978;2023-05-24T01:18:05;98758.53;;;13.42;100.00
68169;BME280;54981;50.206;15.978;2023-05-24T01:20:38;98763.66;;;13.32;100.00
68169;BME280;54981;50.206;15.978;2023-05-24T01:23:14;98768.59;;;13.38;100.00
68169;BME280;54981;50.206;15.978;2023-05-24T01:25:59;98770.75;;;13.33;100.00
68169;BME280;54981;50.206;15.978;2023-05-24T01:28:33;98777.03;;;13.32;100.00
68169;BME280;54981;50.206;15.978;2023-05-24T01:31:05;98780.97;;;13.27;100.00
68169;BME280;54981;50.206;15.978;2023-05-24T01:33:43;98775.72;;;13.25;100.00
68169;BME280;54981;50.206;15.978;2023-05-24T01:36:14;98780.19;;;13.25;100.00
68169;BME280;54981;50.206;15.978;2023-05-24T01:38:45;98784.78;;;13.22;100.00
68169;BME280;54981;50.206;15.978;2023-05-24T01:41:46;98790.81;;;13.26;100.00
68169;BME280;54981;50.206;15.978;2023-05-24T01:44:22;98789.28;;;13.22;100.00
68169;BME280;54981;50.206;15.978;2023-05-24T01:50:24;98799.13;;;13.09;100.00
68169;BME280;54981;50.206;15.978;2023-05-24T01:53:02;98798.38;;;13.07;100.00
68169;BME280;54981;50.206;15.978;2023-05-24T01:55:33;98804.34;;;13.10;100.00
68169;BME280;54981;50.206;15.978;2023-05-24T01:58:06;98808.38;;;13.03;100.00
68169;BME280;54981;50.206;15.978;2023-05-24T02:00:40;98802.97;;;13.05;100.00
68169;BME280;54981;50.206;15.978;2023-05-24T02:03:13;98812.13;;;13.00;100.00
68169;BME280;54981;50.206;15.978;2023-05-24T02:05:45;98814.94;;;12.99;100.00
68169;BME280;54981;50.206;15.978;2023-05-24T02:08:19;98810.94;;;12.92;100.00
68169;BME280;54981;50.206;15.978;2023-05-24T02:10:50;98816.38;;;12.90;100.00
68169;BME280;54981;50.206;15.978;2023-05-24T02:13:20;98819.69;;;12.94;100.00
68169;BME280;54981;50.206;15.978;2023-05-24T02:15:51;98819.97;;;12.76;100.00
68169;BME280;54981;50.206;15.978;2023-05-24T02:18:22;98820.63;;;12.80;100.00
68169;BME280;54981;50.206;15.978;2023-05-24T02:20:53;98818.72;;;12.82;100.00
68169;BME280;54981;50.206;15.978;2023-05-24T02:23:23;98817.75;;;12.83;100.00
68169;BME280;54981;50.206;15.978;2023-05-24T02:25:54;98825.31;;;12.76;100.00
68169;BME280;54981;50.206;15.978;2023-05-24T02:28:25;98825.59;;;12.72;100.00
68169;BME280;54981;50.206;15.978;2023-05-24T02:30:55;98827.22;;;12.74;100.00
68169;BME280;54981;50.206;15.978;2023-05-24T02:33:26;98834.50;;;12.72;100.00
68169;BME280;54981;50.206;15.978;2023-05-24T02:35:58;98830.31;;;12.68;100.00
68169;BME280;54981;50.206;15.978;2023-05-24T02:38:30;98829.53;;;12.66;100.00
68169;BME280;54981;50.206;15.978;2023-05-24T02:41:02;98830.94;;;12.72;100.00
68169;BME280;54981;50.206;15.978;2023-05-24T02:43:32;98829.41;;;12.82;100.00
68169;BME280;54981;50.206;15.978;2023-05-24T02:46:03;98830.13;;;12.57;100.00
68169;BME280;54981;50.206;15.978;2023-05-24T02:48:33;98831.25;;;12.67;100.00
68169;BME280;54981;50.206;15.978;2023-05-24T02:51:04;98831.66;;;12.61;100.00
68169;BME280;54981;50.206;15.978;2023-05-24T02:53:34;98832.50;;;12.62;100.00
68169;BME280;54981;50.206;15.978;2023-05-24T02:56:05;98842.72;;;12.55;100.00
68169;BME280;54981;50.206;15.978;2023-05-24T02:58:36;98836.94;;;12.48;100.00
68169;BME280;54981;50.206;15.978;2023-05-24T03:01:10;98841.41;;;12.48;100.00
68169;BME280;54981;50.206;15.978;2023-05-24T03:03:41;98838.41;;;12.40;100.00
68169;BME280;54981;50.206;15.978;2023-05-24T03:06:12;98843.31;;;12.46;100.00
68169;BME280;54981;50.206;15.978;2023-05-24T03:08:45;98848.09;;;12.41;100.00
68169;BME280;54981;50.206;15.978;2023-05-24T03:11:16;98848.78;;;12.44;100.00
68169;BME280;54981;50.206;15.978;2023-05-24T03:13:51;98855.47;;;12.37;100.00
68169;BME280;54981;50.206;15.978;2023-05-24T03:16:21;98855.19;;;12.42;100.00
68169;BME280;54981;50.206;15.978;2023-05-24T03:18:52;98856.53;;;12.34;100.00
68169;BME280;54981;50.206;15.978;2023-05-24T03:21:24;98862.91;;;12.32;100.00
68169;BME280;54981;50.206;15.978;2023-05-24T03:23:54;98857.16;;;12.38;100.00
68169;BME280;54981;50.206;15.978;2023-05-24T03:26:25;98860.34;;;12.30;100.00
68169;BME280;54981;50.206;15.978;2023-05-24T03:28:56;98865.75;;;12.14;100.00
68169;BME280;54981;50.206;15.978;2023-05-24T03:31:27;98867.50;;;12.15;100.00
68169;BME280;54981;50.206;15.978;2023-05-24T03:33:57;98870.94;;;12.18;100.00
68169;BME280;54981;50.206;15.978;2023-05-24T03:36:28;98870.94;;;12.03;100.00
68169;BME280;54981;50.206;15.978;2023-05-24T03:38:58;98876.06;;;11.92;100.00
68169;BME280;54981;50.206;15.978;2023-05-24T03:41:29;98877.81;;;11.93;100.00
68169;BME280;54981;50.206;15.978;2023-05-24T03:44:00;98877.59;;;11.96;100.00
68169;BME280;54981;50.206;15.978;2023-05-24T03:46:30;98889.50;;;11.90;100.00
68169;BME280;54981;50.206;15.978;2023-05-24T03:49:00;98893.22;;;11.88;100.00
68169;BME280;54981;50.206;15.978;2023-05-24T03:51:31;98894.09;;;11.88;100.00
68169;BME280;54981;50.206;15.978;2023-05-24T03:54:02;98897.28;;;11.79;100.00
68169;BME280;54981;50.206;15.978;2023-05-24T03:56:32;98891.66;;;11.84;100.00
68169;BME280;54981;50.206;15.978;2023-05-24T03:59:03;98900.81;;;11.80;100.00
68169;BME280;54981;50.206;15.978;2023-05-24T04:01:33;98908.44;;;11.86;100.00
68169;BME280;54981;50.206;15.978;2023-05-24T04:04:05;98906.34;;;11.77;100.00
68169;BME280;54981;50.206;15.978;2023-05-24T04:06:36;98910.69;;;11.78;100.00
68169;BME280;54981;50.206;15.978;2023-05-24T04:09:07;98913.94;;;11.83;100.00
68169;BME280;54981;50.206;15.978;2023-05-24T04:11:39;98915.00;;;11.80;100.00
68169;BME280;54981;50.206;15.978;2023-05-24T04:14:09;98922.16;;;11.80;100.00
68169;BME280;54981;50.206;15.978;2023-05-24T04:16:39;98926.06;;;11.74;100.00
68169;BME280;54981;50.206;15.978;2023-05-24T04:19:10;98929.56;;;11.75;100.00
68169;BME280;54981;50.206;15.978;2023-05-24T04:21:41;98930.34;;;11.77;100.00
68169;BME280;54981;50.206;15.978;2023-05-24T04:24:11;98937.56;;;11.75;100.00
68169;BME280;54981;50.206;15.978;2023-05-24T04:26:41;98940.44;;;11.71;100.00
68169;BME280;54981;50.206;15.978;2023-05-24T04:29:12;98945.16;;;11.66;100.00
68169;BME280;54981;50.206;15.978;2023-05-24T04:31:43;98947.06;;;11.64;100.00
68169;BME280;54981;50.206;15.978;2023-05-24T04:34:14;98946.84;;;11.53;100.00
68169;BME280;54981;50.206;15.978;2023-05-24T04:36:44;98946.31;;;11.62;100.00
68169;BME280;54981;50.206;15.978;2023-05-24T04:39:16;98948.19;;;11.60;100.00
68169;BME280;54981;50.206;15.978;2023-05-24T04:41:47;98954.31;;;11.62;100.00
68169;BME280;54981;50.206;15.978;2023-05-24T04:44:22;98952.22;;;11.67;100.00
68169;BME280;54981;50.206;15.978;2023-05-24T04:46:53;98949.38;;;11.70;100.00
68169;BME280;54981;50.206;15.978;2023-05-24T04:49:23;98955.66;;;11.69;100.00
68169;BME280;54981;50.206;15.978;2023-05-24T04:51:56;98958.41;;;11.68;100.00
68169;BME280;54981;50.206;15.978;2023-05-24T04:54:26;98960.03;;;11.70;100.00
68169;BME280;54981;50.206;15.978;2023-05-24T04:56:57;98951.69;;;11.77;100.00
68169;BME280;54981;50.206;15.978;2023-05-24T04:59:27;98955.94;;;11.65;100.00
68169;BME280;54981;50.206;15.978;2023-05-24T05:01:57;98961.31;;;11.79;100.00
68169;BME280;54981;50.206;15.978;2023-05-24T05:04:28;98956.63;;;11.83;100.00
68169;BME280;54981;50.206;15.978;2023-05-24T05:06:58;98958.19;;;11.87;100.00
68169;BME280;54981;50.206;15.978;2023-05-24T05:09:28;98965.41;;;11.85;100.00
68169;BME280;54981;50.206;15.978;2023-05-24T05:11:59;98959.56;;;11.94;100.00
68169;BME280;54981;50.206;15.978;2023-05-24T05:14:29;98957.94;;;11.91;100.00
68169;BME280;54981;50.206;15.978;2023-05-24T05:16:59;98962.31;;;11.92;100.00
68169;BME280;54981;50.206;15.978;2023-05-24T05:19:30;98963.19;;;12.07;100.00
68169;BME280;54981;50.206;15.978;2023-05-24T05:22:00;98968.72;;;12.04;100.00
68169;BME280;54981;50.206;15.978;2023-05-24T05:24:31;98969.19;;;11.97;100.00
68169;BME280;54981;50.206;15.978;2023-05-24T05:27:02;98968.53;;;11.93;100.00
68169;BME280;54981;50.206;15.978;2023-05-24T05:29:33;98963.84;;;11.97;100.00
68169;BME280;54981;50.206;15.978;2023-05-24T05:32:06;98963.50;;;12.03;100.00
68169;BME280;54981;50.206;15.978;2023-05-24T05:34:37;98973.28;;;12.02;100.00
68169;BME280;54981;50.206;15.978;2023-05-24T05:37:07;98974.44;;;11.98;100.00
68169;BME280;54981;50.206;15.978;2023-05-24T05:39:37;98971.19;;;12.07;100.00
68169;BME280;54981;50.206;15.978;2023-05-24T05:42:08;98976.84;;;12.03;100.00
68169;BME280;54981;50.206;15.978;2023-05-24T05:44:38;98981.31;;;12.17;100.00
68169;BME280;54981;50.206;15.978;2023-05-24T05:47:09;98973.50;;;12.28;100.00
68169;BME280;54981;50.206;15.978;2023-05-24T05:49:39;98981.44;;;12.29;100.00
68169;BME280;54981;50.206;15.978;2023-05-24T05:52:11;98982.19;;;12.46;100.00
68169;BME280;54981;50.206;15.978;2023-05-24T05:54:41;98983.81;;;12.34;100.00
68169;BME280;54981;50.206;15.978;2023-05-24T05:57:12;98986.00;;;12.27;100.00
68169;BME280;54981;50.206;15.978;2023-05-24T05:59:42;98980.94;;;12.23;100.00
68169;BME280;54981;50.206;15.978;2023-05-24T06:02:12;98983.81;;;12.34;100.00
68169;BME280;54981;50.206;15.978;2023-05-24T06:04:44;98989.34;;;12.31;100.00
68169;BME280;54981;50.206;15.978;2023-05-24T06:07:15;98992.97;;;12.30;100.00
68169;BME280;54981;50.206;15.978;2023-05-24T06:09:48;98995.22;;;12.22;100.00
68169;BME280;54981;50.206;15.978;2023-05-24T06:12:19;98998.09;;;12.19;100.00
68169;BME280;54981;50.206;15.978;2023-05-24T06:14:49;98993.81;;;12.16;100.00
68169;BME280;54981;50.206;15.978;2023-05-24T06:17:21;99000.41;;;12.25;100.00
68169;BME280;54981;50.206;15.978;2023-05-24T06:19:54;98999.66;;;12.37;100.00
68169;BME280;54981;50.206;15.978;2023-05-24T06:22:25;99005.16;;;12.63;100.00
68169;BME280;54981;50.206;15.978;2023-05-24T06:24:59;99006.91;;;12.64;100.00
68169;BME280;54981;50.206;15.978;2023-05-24T06:27:30;99009.50;;;12.79;100.00
68169;BME280;54981;50.206;15.978;2023-05-24T06:30:00;99017.38;;;12.81;100.00
68169;BME280;54981;50.206;15.978;2023-05-24T06:32:30;99023.50;;;12.69;100.00
68169;BME280;54981;50.206;15.978;2023-05-24T06:35:01;99019.50;;;12.47;100.00
68169;BME280;54981;50.206;15.978;2023-05-24T06:37:32;99026.47;;;12.78;100.00
68169;BME280;54981;50.206;15.978;2023-05-24T06:40:03;99017.59;;;12.78;100.00
68169;BME280;54981;50.206;15.978;2023-05-24T06:42:35;99023.19;;;13.02;100.00
68169;BME280;54981;50.206;15.978;2023-05-24T06:45:06;99017.69;;;13.18;100.00
68169;BME280;54981;50.206;15.978;2023-05-24T06:47:37;99018.53;;;13.47;100.00
68169;BME280;54981;50.206;15.978;2023-05-24T06:50:08;99020.53;;;13.71;100.00
68169;BME280;54981;50.206;15.978;2023-05-24T06:52:38;99023.72;;;13.63;100.00
68169;BME280;54981;50.206;15.978;2023-05-24T06:55:08;99022.91;;;13.75;100.00
68169;BME280;54981;50.206;15.978;2023-05-24T06:57:39;99025.00;;;13.97;100.00
68169;BME280;54981;50.206;15.978;2023-05-24T07:00:10;99034.31;;;14.04;100.00
68169;BME280;54981;50.206;15.978;2023-05-24T07:02:41;99032.09;;;14.11;100.00
68169;BME280;54981;50.206;15.978;2023-05-24T07:05:12;99036.06;;;14.05;100.00
68169;BME280;54981;50.206;15.978;2023-05-24T07:07:42;99036.28;;;14.02;100.00
68169;BME280;54981;50.206;15.978;2023-05-24T07:10:13;99043.56;;;14.13;100.00
68169;BME280;54981;50.206;15.978;2023-05-24T07:12:43;99047.00;;;14.28;100.00
68169;BME280;54981;50.206;15.978;2023-05-24T07:15:14;99050.34;;;14.44;100.00
68169;BME280;54981;50.206;15.978;2023-05-24T07:17:44;99044.81;;;14.60;100.00
68169;BME280;54981;50.206;15.978;2023-05-24T07:20:14;99045.91;;;14.58;100.00
68169;BME280;54981;50.206;15.978;2023-05-24T07:22:45;99049.44;;;14.58;100.00
68169;BME280;54981;50.206;15.978;2023-05-24T07:25:15;99042.44;;;14.81;100.00
68169;BME280;54981;50.206;15.978;2023-05-24T07:27:46;99047.25;;;15.02;100.00
68169;BME280;54981;50.206;15.978;2023-05-24T07:30:16;99057.50;;;15.21;100.00
68169;BME280;54981;50.206;15.978;2023-05-24T07:32:48;99049.59;;;15.06;100.00
68169;BME280;54981;50.206;15.978;2023-05-24T07:35:21;99055.31;;;14.89;100.00
68169;BME280;54981;50.206;15.978;2023-05-24T07:37:52;99063.66;;;14.72;100.00
68169;BME280;54981;50.206;15.978;2023-05-24T07:40:24;99064.56;;;14.72;100.00
68169;BME280;54981;50.206;15.978;2023-05-24T07:42:54;99057.56;;;14.95;100.00
68169;BME280;54981;50.206;15.978;2023-05-24T07:45:25;99055.06;;;15.18;100.00
68169;BME280;54981;50.206;15.978;2023-05-24T07:47:55;99060.25;;;15.32;100.00
68169;BME280;54981;50.206;15.978;2023-05-24T07:50:26;99053.09;;;15.32;100.00
68169;BME280;54981;50.206;15.978;2023-05-24T07:52:58;99045.50;;;15.50;100.00
68169;BME280;54981;50.206;15.978;2023-05-24T07:55:28;99052.28;;;15.43;100.00
68169;BME280;54981;50.206;15.978;2023-05-24T07:57:58;99058.84;;;15.39;100.00
68169;BME280;54981;50.206;15.978;2023-05-24T08:00:29;99055.81;;;15.44;100.00
68169;BME280;54981;50.206;15.978;2023-05-24T08:02:59;99063.59;;;15.36;100.00
68169;BME280;54981;50.206;15.978;2023-05-24T08:05:30;99060.38;;;15.30;100.00
68169;BME280;54981;50.206;15.978;2023-05-24T08:08:00;99053.88;;;15.59;100.00
68169;BME280;54981;50.206;15.978;2023-05-24T08:10:33;99053.72;;;15.60;100.00
68169;BME280;54981;50.206;15.978;2023-05-24T08:13:03;99048.88;;;15.78;100.00
68169;BME280;54981;50.206;15.978;2023-05-24T08:15:34;99047.28;;;16.11;100.00
68169;BME280;54981;50.206;15.978;2023-05-24T08:18:05;99050.81;;;16.47;100.00
68169;BME280;54981;50.206;15.978;2023-05-24T08:20:35;99046.72;;;16.30;100.00
68169;BME280;54981;50.206;15.978;2023-05-24T08:23:06;99045.19;;;16.38;100.00
68169;BME280;54981;50.206;15.978;2023-05-24T08:25:36;99051.41;;;16.39;100.00
68169;BME280;54981;50.206;15.978;2023-05-24T08:28:07;99053.63;;;16.45;100.00
68169;BME280;54981;50.206;15.978;2023-05-24T08:30:37;99052.88;;;16.08;100.00
68169;BME280;54981;50.206;15.978;2023-05-24T08:33:08;99054.78;;;16.30;100.00
68169;BME280;54981;50.206;15.978;2023-05-24T08:35:38;99058.63;;;16.38;100.00
68169;BME280;54981;50.206;15.978;2023-05-24T08:38:09;99053.25;;;16.50;100.00
68169;BME280;54981;50.206;15.978;2023-05-24T08:40:39;99064.53;;;16.66;100.00
68169;BME280;54981;50.206;15.978;2023-05-24T08:43:10;99067.28;;;17.00;100.00
68169;BME280;54981;50.206;15.978;2023-05-24T08:45:42;99067.28;;;17.00;100.00
68169;BME280;54981;50.206;15.978;2023-05-24T08:48:13;99066.81;;;16.48;100.00
68169;BME280;54981;50.206;15.978;2023-05-24T08:50:45;99064.53;;;16.77;100.00
68169;BME280;54981;50.206;15.978;2023-05-24T08:53:17;99069.84;;;16.79;100.00
68169;BME280;54981;50.206;15.978;2023-05-24T08:55:49;99073.69;;;16.64;100.00
68169;BME280;54981;50.206;15.978;2023-05-24T08:58:23;99066.66;;;16.96;100.00
68169;BME280;54981;50.206;15.978;2023-05-24T09:00:53;99062.13;;;16.97;100.00
68169;BME280;54981;50.206;15.978;2023-05-24T09:03:24;99075.13;;;17.03;100.00
68169;BME280;54981;50.206;15.978;2023-05-24T09:05:55;99067.88;;;17.26;100.00
68169;BME280;54981;50.206;15.978;2023-05-24T09:08:27;99067.88;;;17.26;100.00
68169;BME280;54981;50.206;15.978;2023-05-24T09:10:58;99079.50;;;16.81;100.00
68169;BME280;54981;50.206;15.978;2023-05-24T09:13:31;99073.25;;;16.34;100.00
68169;BME280;54981;50.206;15.978;2023-05-24T09:16:01;99079.41;;;16.59;100.00
68169;BME280;54981;50.206;15.978;2023-05-24T09:18:32;99089.94;;;16.62;100.00
68169;BME280;54981;50.206;15.978;2023-05-24T09:21:02;99078.81;;;16.55;100.00
68169;BME280;54981;50.206;15.978;2023-05-24T09:23:34;99076.75;;;16.70;100.00
68169;BME280;54981;50.206;15.978;2023-05-24T09:26:08;99087.03;;;16.65;100.00
68169;BME280;54981;50.206;15.978;2023-05-24T09:28:39;99079.72;;;16.32;100.00
68169;BME280;54981;50.206;15.978;2023-05-24T09:31:11;99078.41;;;16.84;100.00
68169;BME280;54981;50.206;15.978;2023-05-24T09:33:42;99087.44;;;16.94;100.00
68169;BME280;54981;50.206;15.978;2023-05-24T09:36:15;99078.25;;;16.86;100.00
68169;BME280;54981;50.206;15.978;2023-05-24T09:38:46;99087.72;;;17.25;100.00
68169;BME280;54981;50.206;15.978;2023-05-24T09:41:19;99078.75;;;17.58;100.00
68169;BME280;54981;50.206;15.978;2023-05-24T09:43:49;99079.16;;;17.75;100.00
68169;BME280;54981;50.206;15.978;2023-05-24T09:46:21;99085.56;;;17.85;100.00
68169;BME280;54981;50.206;15.978;2023-05-24T09:48:59;99088.47;;;17.93;93.92
68169;BME280;54981;50.206;15.978;2023-05-24T09:51:29;99088.13;;;17.64;100.00
68169;BME280;54981;50.206;15.978;2023-05-24T09:54:01;99076.75;;;17.83;100.00
68169;BME280;54981;50.206;15.978;2023-05-24T09:56:32;99081.78;;;18.08;97.26
68169;BME280;54981;50.206;15.978;2023-05-24T09:59:07;99082.56;;;17.99;90.09
68169;BME280;54981;50.206;15.978;2023-05-24T10:01:38;99084.53;;;17.97;92.57
68169;BME280;54981;50.206;15.978;2023-05-24T10:04:08;99076.34;;;17.76;100.00
68169;BME280;54981;50.206;15.978;2023-05-24T10:06:41;99081.91;;;17.52;100.00
68169;BME280;54981;50.206;15.978;2023-05-24T10:09:12;99073.09;;;17.61;100.00
68169;BME280;54981;50.206;15.978;2023-05-24T10:11:46;99074.56;;;17.65;96.72
68169;BME280;54981;50.206;15.978;2023-05-24T10:14:18;99079.47;;;17.49;83.72
68169;BME280;54981;50.206;15.978;2023-05-24T10:16:49;99083.88;;;17.39;73.01
68169;BME280;54981;50.206;15.978;2023-05-24T10:19:20;99082.06;;;17.28;91.71
68169;BME280;54981;50.206;15.978;2023-05-24T10:21:52;99079.03;;;17.10;83.50
68169;BME280;54981;50.206;15.978;2023-05-24T10:24:29;99084.38;;;17.33;91.37
68169;BME280;54981;50.206;15.978;2023-05-24T10:27:04;99083.75;;;17.40;98.73
68169;BME280;54981;50.206;15.978;2023-05-24T10:32:17;99078.19;;;17.87;99.33
68169;BME280;54981;50.206;15.978;2023-05-24T10:34:49;99085.97;;;18.01;93.78
68169;BME280;54981;50.206;15.978;2023-05-24T10:37:23;99074.00;;;17.94;90.17
68169;BME280;54981;50.206;15.978;2023-05-24T10:39:55;99072.94;;;17.85;83.13
68169;BME280;54981;50.206;15.978;2023-05-24T10:42:26;99081.56;;;18.00;92.96
68169;BME280;54981;50.206;15.978;2023-05-24T10:44:56;99079.84;;;18.31;97.42
68169;BME280;54981;50.206;15.978;2023-05-24T10:47:27;99087.66;;;18.35;97.33
68169;BME280;54981;50.206;15.978;2023-05-24T10:49:57;99087.16;;;18.41;96.33
68169;BME280;54981;50.206;15.978;2023-05-24T10:52:35;99084.97;;;18.14;97.81
68169;BME280;54981;50.206;15.978;2023-05-24T10:55:07;99093.06;;;18.14;99.31
68169;BME280;54981;50.206;15.978;2023-05-24T10:57:39;99082.97;;;18.48;100.00
68169;BME280;54981;50.206;15.978;2023-05-24T11:03:02;99084.88;;;19.40;86.92
68169;BME280;54981;50.206;15.978;2023-05-24T11:05:33;99093.19;;;19.67;93.56
68169;BME280;54981;50.206;15.978;2023-05-24T11:08:05;99092.56;;;19.85;89.18
68169;BME280;54981;50.206;15.978;2023-05-24T11:10:36;99099.09;;;19.72;84.77
68169;BME280;54981;50.206;15.978;2023-05-24T11:13:07;99091.28;;;19.39;93.14
68169;BME280;54981;50.206;15.978;2023-05-24T11:15:38;99097.75;;;19.67;87.00
68169;BME280;54981;50.206;15.978;2023-05-24T11:20:44;99082.91;;;20.11;84.28
68169;BME280;54981;50.206;15.978;2023-05-24T11:23:15;99097.28;;;19.52;88.69
68169;BME280;54981;50.206;15.978;2023-05-24T11:25:46;99093.19;;;18.75;100.00
68169;BME280;54981;50.206;15.978;2023-05-24T11:28:17;99098.00;;;18.29;100.00
68169;BME280;54981;50.206;15.978;2023-05-24T11:30:48;99096.63;;;18.03;100.00
68169;BME280;54981;50.206;15.978;2023-05-24T11:33:20;99100.72;;;17.75;100.00
68169;BME280;54981;50.206;15.978;2023-05-24T11:35:53;99098.56;;;17.12;100.00
68169;BME280;54981;50.206;15.978;2023-05-24T11:38:24;99106.66;;;17.12;100.00
68169;BME280;54981;50.206;15.978;2023-05-24T11:40:57;99100.41;;;17.23;100.00
68169;BME280;54981;50.206;15.978;2023-05-24T11:43:29;99100.75;;;17.41;100.00
68169;BME280;54981;50.206;15.978;2023-05-24T11:46:00;99096.84;;;17.56;100.00
68169;BME280;54981;50.206;15.978;2023-05-24T11:48:31;99097.00;;;17.32;100.00
68169;BME280;54981;50.206;15.978;2023-05-24T11:51:01;99091.69;;;17.53;100.00
68169;BME280;54981;50.206;15.978;2023-05-24T11:53:34;99087.75;;;17.68;100.00
68169;BME280;54981;50.206;15.978;2023-05-24T11:56:08;99100.47;;;17.89;100.00
68169;BME280;54981;50.206;15.978;2023-05-24T11:58:48;99092.41;;;17.78;100.00
68169;BME280;54981;50.206;15.978;2023-05-24T12:01:31;99087.44;;;18.05;100.00
68169;BME280;54981;50.206;15.978;2023-05-24T12:04:01;99088.63;;;18.13;100.00
68169;BME280;54981;50.206;15.978;2023-05-24T12:06:38;99104.66;;;17.71;100.00
68169;BME280;54981;50.206;15.978;2023-05-24T12:09:11;99097.31;;;17.73;100.00
68169;BME280;54981;50.206;15.978;2023-05-24T12:11:49;99081.69;;;17.99;100.00
68169;BME280;54981;50.206;15.978;2023-05-24T12:14:29;99091.84;;;18.06;100.00
68169;BME280;54981;50.206;15.978;2023-05-24T12:17:01;99094.34;;;17.87;100.00
68169;BME280;54981;50.206;15.978;2023-05-24T12:19:32;99103.47;;;17.52;100.00
68169;BME280;54981;50.206;15.978;2023-05-24T12:22:04;99094.66;;;17.39;100.00
68169;BME280;54981;50.206;15.978;2023-05-24T12:24:36;99105.66;;;17.58;100.00
68169;BME280;54981;50.206;15.978;2023-05-24T12:27:06;99104.66;;;17.71;100.00
68169;BME280;54981;50.206;15.978;2023-05-24T12:29:39;99106.41;;;17.27;100.00
68169;BME280;54981;50.206;15.978;2023-05-24T12:32:10;99097.84;;;17.33;100.00
68169;BME280;54981;50.206;15.978;2023-05-24T12:34:43;99101.50;;;17.43;100.00
68169;BME280;54981;50.206;15.978;2023-05-24T12:37:14;99091.94;;;17.39;100.00
68169;BME280;54981;50.206;15.978;2023-05-24T12:39:44;99097.00;;;16.98;100.00
68169;BME280;54981;50.206;15.978;2023-05-24T12:42:15;99098.34;;;17.04;100.00
68169;BME280;54981;50.206;15.978;2023-05-24T12:44:45;99092.97;;;17.15;100.00
68169;BME280;54981;50.206;15.978;2023-05-24T12:47:21;99094.31;;;17.21;100.00
68169;BME280;54981;50.206;15.978;2023-05-24T12:49:51;99096.41;;;17.17;100.00
68169;BME280;54981;50.206;15.978;2023-05-24T12:52:22;99098.56;;;17.12;100.00
68169;BME280;54981;50.206;15.978;2023-05-24T12:54:52;99097.38;;;17.28;100.00
68169;BME280;54981;50.206;15.978;2023-05-24T12:57:22;99094.53;;;17.40;100.00
68169;BME280;54981;50.206;15.978;2023-05-24T12:59:53;99092.31;;;17.57;100.00
68169;BME280;54981;50.206;15.978;2023-05-24T13:02:23;99086.88;;;17.91;100.00
68169;BME280;54981;50.206;15.978;2023-05-24T13:04:53;99087.22;;;17.97;100.00
68169;BME280;54981;50.206;15.978;2023-05-24T13:07:24;99090.84;;;18.07;100.00
68169;BME280;54981;50.206;15.978;2023-05-24T13:09:54;99090.41;;;17.91;100.00
68169;BME280;54981;50.206;15.978;2023-05-24T13:12:25;99090.09;;;17.62;100.00
68169;BME280;54981;50.206;15.978;2023-05-24T13:14:58;99089.03;;;17.42;100.00
68169;BME280;54981;50.206;15.978;2023-05-24T13:17:28;99092.94;;;17.38;100.00
68169;BME280;54981;50.206;15.978;2023-05-24T13:20:01;99091.50;;;17.11;100.00